Belle Chasse — WDG2912 — position and weather

sailwx.info

Track history (hours):
 
Tides and Currents Weather Stations Pressure Air Temp Water Temp Dewpoint Dewpoint Depression Visibility Wind Speed Wind Dir Waves Ship Positions

Belle Chasse

Owner: Higman Barge Lines, Inc, Orange, TX. More information available from US FCC via Universal Licensing System and Coast Guard Vessel Documentation Center.

Last reported at 2015-Jun-30 18:05 UTC. Time now 2015-Jul-08 06:32 UTC.
Position N 29°36' W 090°58'.

Length 26 m; draft 3 m.

Type: Towing. MMSI: 367520550.

Date/timePositionNaut miles runAvg speedWind from/ knotsBaromVisibWave heightAir tempDewpointWater temp
2015-Jun-30 18:05N 29°36' W 090°58'3 5.4
2015-Jun-30 17:33N 29°34' W 090°56'6 5.6
2015-Jun-30 16:33N 29°32' W 090°50'4 4.4
2015-Jun-30 15:33N 29°33' W 090°45'2 2.5
2015-Jun-30 14:33N 29°35' W 090°43'2 2.2
2015-Jun-30 13:33N 29°36' W 090°41'4 4.3
2015-Jun-30 12:33N 29°35' W 090°36'4 4.1
2015-Jun-30 11:33N 29°34' W 090°32'6 5.0
2015-Jun-30 10:21N 29°33' W 090°25'24 4.0
2015-Jun-30 04:31N 29°48' W 090°04'  
2015-Jun-26 02:06N 29°59' W 090°24'0 0.0
2015-Jun-24 09:12N 29°59' W 090°24'0 0.0
2015-Jun-24 08:30N 29°59' W 090°24'0 0.0
2015-Jun-24 07:12N 29°59' W 090°24'0 0.0
2015-Jun-24 06:30N 29°59' W 090°24'0 0.0
2015-Jun-24 05:30N 29°59' W 090°24'0 0.0
2015-Jun-24 04:30N 29°59' W 090°24'0 0.0
2015-Jun-24 03:30N 29°59' W 090°24'0 0.0
2015-Jun-22 09:30N 29°59' W 090°24'0 0.0
2015-Jun-22 07:24N 29°59' W 090°24'  
Track history (hours):
 
Tides and Currents Weather Stations Pressure Air Temp Water Temp Dewpoint Dewpoint Depression Visibility Wind Speed Wind Dir Waves Ship Positions

Belle Chasse

Owner: Higman Barge Lines, Inc, Orange, TX. More information available from US FCC via Universal Licensing System and Coast Guard Vessel Documentation Center.

Last reported at 2015-Jun-30 18:05 UTC. Time now 2015-Jul-08 06:32 UTC.
Position N 29°36' W 090°58'.

Length 26 m; draft 3 m.

Type: Towing. MMSI: 367520550.

Date/timePositionNaut miles runAvg speedWind from/ knotsBaromVisibWave heightAir tempDewpointWater temp
2015-Jun-30 18:05N 29°36' W 090°58'3 5.4
2015-Jun-30 17:33N 29°34' W 090°56'6 5.6
2015-Jun-30 16:33N 29°32' W 090°50'4 4.4
2015-Jun-30 15:33N 29°33' W 090°45'2 2.5
2015-Jun-30 14:33N 29°35' W 090°43'2 2.2
2015-Jun-30 13:33N 29°36' W 090°41'4 4.3
2015-Jun-30 12:33N 29°35' W 090°36'4 4.1
2015-Jun-30 11:33N 29°34' W 090°32'6 5.0
2015-Jun-30 10:21N 29°33' W 090°25'24 4.0
2015-Jun-30 04:31N 29°48' W 090°04'  
2015-Jun-26 02:06N 29°59' W 090°24'0 0.0
2015-Jun-24 09:12N 29°59' W 090°24'0 0.0
2015-Jun-24 08:30N 29°59' W 090°24'0 0.0
2015-Jun-24 07:12N 29°59' W 090°24'0 0.0
2015-Jun-24 06:30N 29°59' W 090°24'0 0.0
2015-Jun-24 05:30N 29°59' W 090°24'0 0.0
2015-Jun-24 04:30N 29°59' W 090°24'0 0.0
2015-Jun-24 03:30N 29°59' W 090°24'0 0.0
2015-Jun-22 09:30N 29°59' W 090°24'0 0.0
2015-Jun-22 07:24N 29°59' W 090°24'  

Dump ship's entire track history